createdAt,value
2023-05-09T00:00:06.307Z,36.15
2023-05-09T00:02:54.255Z,39.38
2023-05-09T00:05:21.936Z,34.10
2023-05-09T00:07:49.619Z,36.40
2023-05-09T00:10:16.837Z,38.22
2023-05-09T00:12:44.429Z,40.20
2023-05-09T00:15:12.230Z,40.28
2023-05-09T00:17:40.376Z,35.90
2023-05-09T00:20:12.003Z,49.13
2023-05-09T00:22:42.781Z,34.70
2023-05-09T00:25:11.246Z,36.05
2023-05-09T00:27:38.733Z,34.40
2023-05-09T00:30:06.803Z,37.40
2023-05-09T00:32:34.656Z,45.38
2023-05-09T00:35:02.427Z,35.03
2023-05-09T00:37:31.531Z,37.33
2023-05-09T00:39:59.293Z,34.30
2023-05-09T00:42:26.853Z,31.42
2023-05-09T00:44:54.177Z,31.90
2023-05-09T00:47:23.899Z,36.80
2023-05-09T00:49:51.226Z,35.28
2023-05-09T00:52:23.333Z,29.52
2023-05-09T00:54:52.507Z,28.25
2023-05-09T00:57:20.539Z,30.30
2023-05-09T00:59:48.270Z,31.48
2023-05-09T01:02:17.969Z,29.88
2023-05-09T01:04:48.486Z,26.65
2023-05-09T01:07:40.351Z,28.80
2023-05-09T01:10:33.307Z,26.20
2023-05-09T01:13:24.068Z,20.90
2023-05-09T01:16:18.404Z,26.80
2023-05-09T01:18:49.079Z,26.50
2023-05-09T01:21:21.403Z,32.40
2023-05-09T01:24:48.124Z,23.48
2023-05-09T01:27:23.557Z,21.98
2023-05-09T01:29:58.271Z,27.60
2023-05-09T01:32:28.798Z,21.67
2023-05-09T01:35:00.301Z,18.52
2023-05-09T01:37:33.549Z,26.30
2023-05-09T01:40:08.517Z,21.05
2023-05-09T01:42:43.688Z,26.30
2023-05-09T01:45:12.429Z,22.83
2023-05-09T01:47:41.655Z,23.73
2023-05-09T01:50:12.012Z,23.33
2023-05-09T01:52:41.396Z,17.60
2023-05-09T01:55:10.035Z,26.05
2023-05-09T01:57:38.478Z,30.15
2023-05-09T02:00:09.168Z,21.75
2023-05-09T02:02:43.163Z,22.02
2023-05-09T02:05:12.917Z,18.08
2023-05-09T02:07:41.726Z,21.15
2023-05-09T02:10:11.459Z,22.92
2023-05-09T02:12:39.788Z,21.10
2023-05-09T02:15:08.849Z,14.45
2023-05-09T02:17:40.230Z,18.73
2023-05-09T02:20:09.940Z,19.63
2023-05-09T02:22:39.515Z,20.65
2023-05-09T02:25:08.442Z,25.55
2023-05-09T02:27:38.267Z,19.95
2023-05-09T02:30:11.246Z,21.27
2023-05-09T02:32:40.326Z,18.65
2023-05-09T02:35:09.913Z,18.65
2023-05-09T02:37:38.258Z,19.63
2023-05-09T02:40:09.252Z,22.17
2023-05-09T02:42:36.579Z,23.17
2023-05-09T02:45:04.408Z,24.20
2023-05-09T02:47:32.241Z,24.00
2023-05-09T02:49:59.629Z,35.50
2023-05-09T02:52:27.482Z,24.50
2023-05-09T02:54:55.283Z,19.77
2023-05-09T02:57:22.573Z,20.30
2023-05-09T02:59:50.276Z,35.75
2023-05-09T03:02:17.733Z,27.02
2023-05-09T03:04:45.527Z,21.58
2023-05-09T03:07:13.021Z,28.77
2023-05-09T03:09:41.307Z,28.33
2023-05-09T03:12:08.999Z,23.27
2023-05-09T03:14:37.048Z,25.33
2023-05-09T03:17:04.497Z,23.10
2023-05-09T03:19:35.644Z,21.13
2023-05-09T03:22:03.155Z,18.38
2023-05-09T03:24:34.291Z,24.50
2023-05-09T03:27:02.937Z,26.15
2023-05-09T03:29:30.799Z,27.98
2023-05-09T03:31:59.306Z,30.10
2023-05-09T03:34:26.971Z,21.52
2023-05-09T03:36:54.680Z,27.52
2023-05-09T03:39:22.416Z,22.25
2023-05-09T03:44:22.123Z,21.23
2023-05-09T03:46:50.157Z,21.08
2023-05-09T03:49:18.030Z,18.20
2023-05-09T03:51:46.370Z,20.80
2023-05-09T03:54:16.587Z,29.92
2023-05-09T03:56:43.807Z,16.73
2023-05-09T03:59:11.313Z,26.02
2023-05-09T04:01:40.286Z,26.88
2023-05-09T04:04:09.002Z,17.20
2023-05-09T04:06:37.818Z,18.38
2023-05-09T04:09:07.688Z,15.55
2023-05-09T04:11:35.104Z,14.63
2023-05-09T04:14:07.041Z,15.45
2023-05-09T04:16:36.539Z,16.80
2023-05-09T04:19:04.327Z,18.65
2023-05-09T04:21:32.431Z,27.98
2023-05-09T04:24:02.226Z,16.88
2023-05-09T04:26:39.004Z,17.25
2023-05-09T04:29:09.639Z,11.73
2023-05-09T04:31:37.144Z,11.55
2023-05-09T04:34:06.512Z,18.38
2023-05-09T04:36:35.372Z,16.75
2023-05-09T04:39:05.265Z,11.30
2023-05-09T04:41:34.295Z,15.20
2023-05-09T04:44:02.345Z,10.18
2023-05-09T04:46:30.456Z,17.48
2023-05-09T04:48:58.440Z,24.33
2023-05-09T04:51:26.724Z,16.30
2023-05-09T04:53:54.190Z,11.40
2023-05-09T04:56:26.441Z,14.02
2023-05-09T04:58:54.149Z,14.38
2023-05-09T05:01:21.649Z,9.68
2023-05-09T05:03:50.324Z,12.13
2023-05-09T05:06:17.596Z,14.82
2023-05-09T05:08:45.133Z,13.15
2023-05-09T05:11:13.675Z,8.40
2023-05-09T05:13:41.302Z,11.35
2023-05-09T05:16:09.309Z,14.20
2023-05-09T05:18:36.934Z,15.90
2023-05-09T05:21:05.113Z,12.43
2023-05-09T05:23:32.564Z,12.93
2023-05-09T05:25:59.957Z,11.40
2023-05-09T05:28:28.494Z,21.67
2023-05-09T05:30:55.777Z,9.75
2023-05-09T05:33:23.379Z,11.60
2023-05-09T05:35:51.456Z,9.20
2023-05-09T05:38:19.345Z,7.18
2023-05-09T05:40:50.520Z,6.43
2023-05-09T05:43:18.560Z,13.65
2023-05-09T05:45:46.079Z,7.95
2023-05-09T05:48:17.783Z,12.50
2023-05-09T05:50:46.533Z,16.33
2023-05-09T05:53:16.312Z,7.43
2023-05-09T05:55:46.013Z,5.25
2023-05-09T05:58:14.179Z,11.10
2023-05-09T06:00:41.440Z,9.52
2023-05-09T06:03:14.350Z,7.35
2023-05-09T06:05:48.247Z,9.07
2023-05-09T06:08:15.927Z,17.55
2023-05-09T06:10:43.127Z,8.25
2023-05-09T06:13:11.690Z,7.55
2023-05-09T06:15:42.912Z,4.85
2023-05-09T06:18:11.381Z,11.13
2023-05-09T06:20:38.647Z,8.55
2023-05-09T06:23:06.205Z,6.20
2023-05-09T06:25:33.527Z,5.47
2023-05-09T06:28:01.101Z,7.55
2023-05-09T06:30:28.415Z,9.70
2023-05-09T06:32:57.970Z,7.05
2023-05-09T06:35:25.291Z,6.75
2023-05-09T06:37:52.777Z,10.05
2023-05-09T06:40:20.170Z,7.90
2023-05-09T06:42:47.616Z,5.68
2023-05-09T06:45:16.057Z,5.50
2023-05-09T06:47:43.857Z,4.82
2023-05-09T06:50:11.262Z,2.97
2023-05-09T06:52:38.980Z,5.10
2023-05-09T06:55:06.994Z,6.90
2023-05-09T06:57:34.800Z,6.85
2023-05-09T07:00:02.420Z,6.45
2023-05-09T07:02:30.743Z,7.03
2023-05-09T07:04:58.235Z,8.40
2023-05-09T07:07:25.847Z,8.15
2023-05-09T07:09:57.960Z,5.57
2023-05-09T07:12:32.365Z,14.65
2023-05-09T07:14:59.931Z,6.57
2023-05-09T07:17:27.636Z,10.40
2023-05-09T07:19:54.935Z,5.30
2023-05-09T07:22:22.533Z,14.85
2023-05-09T07:24:50.812Z,7.90
2023-05-09T07:27:18.438Z,5.63
2023-05-09T07:29:45.758Z,3.55
2023-05-09T07:32:13.306Z,8.43
2023-05-09T07:34:40.646Z,4.32
2023-05-09T07:37:08.129Z,11.82
2023-05-09T07:39:35.519Z,9.77
2023-05-09T07:42:03.695Z,5.80
2023-05-09T07:44:31.274Z,7.65
2023-05-09T07:47:02.613Z,9.07
2023-05-09T07:49:29.827Z,7.15
2023-05-09T07:51:57.655Z,8.63
2023-05-09T07:54:24.911Z,10.98
2023-05-09T07:56:53.168Z,8.57
2023-05-09T07:59:20.841Z,8.77
2023-05-09T08:01:48.741Z,7.30
2023-05-09T08:04:16.062Z,3.10
2023-05-09T08:06:43.736Z,11.82
2023-05-09T08:09:10.949Z,4.72
2023-05-09T08:11:38.658Z,8.57
2023-05-09T08:14:05.880Z,2.67
2023-05-09T08:16:33.478Z,2.55
2023-05-09T08:19:01.304Z,10.50
2023-05-09T08:21:28.811Z,10.20
2023-05-09T08:23:56.918Z,9.23
2023-05-09T08:26:24.441Z,6.07
2023-05-09T08:28:51.863Z,6.80
2023-05-09T08:31:19.484Z,8.18
2023-05-09T08:33:46.687Z,5.45
2023-05-09T08:36:14.275Z,4.65
2023-05-09T08:38:41.806Z,4.50
2023-05-09T08:41:09.428Z,5.10
2023-05-09T08:43:38.272Z,4.75
2023-05-09T08:46:09.314Z,9.50
2023-05-09T08:48:39.713Z,5.97
2023-05-09T08:51:07.775Z,6.18
2023-05-09T08:53:35.433Z,8.13
2023-05-09T08:56:06.320Z,5.28
2023-05-09T08:58:34.249Z,2.97
2023-05-09T09:01:08.286Z,8.20
2023-05-09T09:03:38.326Z,7.90
2023-05-09T09:06:08.410Z,6.32
2023-05-09T09:08:36.383Z,10.18
2023-05-09T09:11:04.726Z,4.88
2023-05-09T09:13:32.682Z,6.72
2023-05-09T09:16:01.302Z,5.03
2023-05-09T09:18:30.224Z,6.07
2023-05-09T09:20:59.717Z,11.65
2023-05-09T09:23:27.773Z,4.15
2023-05-09T09:26:00.083Z,3.30
2023-05-09T09:30:56.885Z,22.17
2023-05-09T09:33:25.793Z,9.32
2023-05-09T09:35:54.688Z,20.30
2023-05-09T09:38:23.357Z,12.63
2023-05-09T09:40:55.764Z,6.20
2023-05-09T09:45:51.654Z,3.53
2023-05-09T09:48:19.606Z,6.50
2023-05-09T09:50:48.636Z,3.47
2023-05-09T09:53:16.408Z,9.65
2023-05-09T09:55:53.747Z,9.63
2023-05-09T09:58:30.083Z,6.32
2023-05-09T10:01:14.376Z,3.08
2023-05-09T10:03:43.267Z,8.23
2023-05-09T10:06:14.338Z,12.32
2023-05-09T10:08:42.523Z,5.18
2023-05-09T10:11:11.016Z,3.33
2023-05-09T10:13:38.900Z,8.20
2023-05-09T10:16:10.321Z,6.30
2023-05-09T10:18:38.515Z,17.07
2023-05-09T10:21:08.821Z,6.15
2023-05-09T10:23:38.531Z,11.85
2023-05-09T10:26:11.076Z,7.68
2023-05-09T10:31:17.263Z,6.20
2023-05-09T10:33:49.235Z,10.57
2023-05-09T10:38:45.212Z,5.15
2023-05-09T10:41:13.698Z,10.68
2023-05-09T10:43:41.545Z,6.03
2023-05-09T10:46:10.014Z,5.15
2023-05-09T10:48:37.982Z,6.28
2023-05-09T10:51:06.549Z,2.40
2023-05-09T10:53:44.226Z,2.08
2023-05-09T10:56:51.525Z,1.90
2023-05-09T10:59:42.584Z,2.38
2023-05-09T11:02:14.199Z,2.85
2023-05-09T11:04:42.192Z,8.70
2023-05-09T11:07:25.748Z,10.20
2023-05-09T11:09:54.202Z,3.85
2023-05-09T11:12:24.548Z,2.35
2023-05-09T11:14:53.693Z,2.30
2023-05-09T11:17:24.740Z,6.82
2023-05-09T11:19:52.664Z,4.80
2023-05-09T11:22:23.183Z,6.07
2023-05-09T11:25:06.571Z,4.13
2023-05-09T11:27:44.862Z,4.75
2023-05-09T11:30:17.002Z,2.17
2023-05-09T11:32:55.615Z,10.40
2023-05-09T11:35:23.891Z,2.20
2023-05-09T11:38:05.595Z,7.07
2023-05-09T11:40:34.535Z,20.90
2023-05-09T11:43:02.510Z,22.83
2023-05-09T11:45:32.549Z,6.72
2023-05-09T11:48:04.196Z,3.30
2023-05-09T11:50:31.599Z,3.60
2023-05-09T11:52:59.120Z,8.63
2023-05-09T11:55:29.912Z,6.75
2023-05-09T11:57:59.442Z,5.38
2023-05-09T12:00:27.120Z,8.43
2023-05-09T12:02:55.034Z,5.60
2023-05-09T12:05:26.269Z,4.70
2023-05-09T12:08:04.680Z,6.32
2023-05-09T12:10:32.649Z,7.85
2023-05-09T12:13:05.677Z,4.15
2023-05-09T12:15:39.057Z,3.30
2023-05-09T12:18:09.831Z,5.63
2023-05-09T12:20:55.079Z,5.20
2023-05-09T12:23:23.647Z,5.65
2023-05-09T12:25:55.755Z,4.40
2023-05-09T12:28:27.471Z,4.43
2023-05-09T12:30:55.296Z,2.25
2023-05-09T12:33:23.828Z,9.52
2023-05-09T12:36:10.344Z,3.25
2023-05-09T12:38:38.930Z,2.92
2023-05-09T12:41:15.478Z,6.65
2023-05-09T12:43:57.773Z,5.05
2023-05-09T12:46:25.755Z,7.20
2023-05-09T12:48:54.486Z,9.05
2023-05-09T12:51:22.874Z,12.70
2023-05-09T12:53:50.842Z,6.57
2023-05-09T12:56:20.480Z,2.10
2023-05-09T12:58:52.670Z,5.38
2023-05-09T13:01:21.457Z,7.05
2023-05-09T13:04:07.655Z,6.25
2023-05-09T13:06:36.351Z,2.78
2023-05-09T13:09:09.132Z,3.65
2023-05-09T13:14:05.664Z,6.30
2023-05-09T13:16:33.024Z,3.90
2023-05-09T13:19:01.772Z,4.20
2023-05-09T13:21:29.109Z,7.95
2023-05-09T13:23:56.609Z,8.35
2023-05-09T13:26:24.008Z,2.60
2023-05-09T13:28:51.981Z,2.33
2023-05-09T13:31:19.489Z,2.08
2023-05-09T13:33:48.700Z,7.78
2023-05-09T13:36:18.251Z,6.50
2023-05-09T13:38:47.256Z,4.05
2023-05-09T13:41:20.216Z,7.13
2023-05-09T13:43:48.122Z,12.07
2023-05-09T13:46:15.943Z,8.55
2023-05-09T13:48:44.783Z,27.48
2023-05-09T13:51:12.137Z,10.32
2023-05-09T13:53:39.662Z,7.53
2023-05-09T13:56:09.565Z,2.63
2023-05-09T13:58:37.390Z,9.80
2023-05-09T14:01:04.927Z,4.47
2023-05-09T14:03:33.768Z,5.07
2023-05-09T14:06:01.282Z,5.28
2023-05-09T14:08:29.641Z,3.55
2023-05-09T14:10:56.861Z,5.35
2023-05-09T14:13:25.254Z,2.95
2023-05-09T14:15:53.074Z,6.18
2023-05-09T14:18:21.433Z,4.55
2023-05-09T14:20:49.206Z,11.55
2023-05-09T14:23:17.056Z,3.92
2023-05-09T14:25:44.908Z,6.30
2023-05-09T14:28:12.907Z,3.55
2023-05-09T14:30:40.672Z,8.50
2023-05-09T14:33:08.675Z,2.70
2023-05-09T14:35:37.399Z,6.85
2023-05-09T14:38:06.534Z,4.80
2023-05-09T14:40:33.763Z,8.82
2023-05-09T14:43:04.454Z,2.95
2023-05-09T14:45:33.088Z,5.73
2023-05-09T14:48:01.490Z,1.70
2023-05-09T14:50:29.352Z,9.23
2023-05-09T14:52:57.422Z,5.22
2023-05-09T14:55:26.582Z,5.55
2023-05-09T14:57:54.796Z,5.10
2023-05-09T15:00:24.378Z,5.70
2023-05-09T15:02:52.782Z,3.65
2023-05-09T15:05:20.855Z,1.95
2023-05-09T15:07:48.975Z,4.20
2023-05-09T15:10:16.845Z,8.45
2023-05-09T15:12:45.209Z,4.75
2023-05-09T15:15:16.828Z,5.78
2023-05-09T15:17:46.063Z,2.58
2023-05-09T15:20:20.375Z,3.20
2023-05-09T15:22:48.986Z,1.80
2023-05-09T15:25:17.100Z,4.40
2023-05-09T15:27:44.874Z,0.75
2023-05-09T15:30:12.778Z,1.88
2023-05-09T15:32:41.221Z,3.67
2023-05-09T15:35:09.290Z,3.17
2023-05-09T15:37:36.883Z,3.75
2023-05-09T15:40:09.601Z,8.15
2023-05-09T15:42:38.836Z,3.22
2023-05-09T15:45:07.177Z,4.43
2023-05-09T15:47:35.103Z,6.97
2023-05-09T15:50:03.301Z,4.35
2023-05-09T15:52:30.925Z,8.05
2023-05-09T15:54:59.441Z,12.13
2023-05-09T15:57:27.034Z,4.47
2023-05-09T15:59:57.258Z,3.83
2023-05-09T16:04:52.514Z,3.30
2023-05-09T16:07:20.728Z,5.10
2023-05-09T16:09:48.282Z,5.68
2023-05-09T16:12:15.949Z,10.15
2023-05-09T16:14:43.247Z,3.33
2023-05-09T16:17:11.498Z,6.57
2023-05-09T16:19:38.941Z,2.75
2023-05-09T16:22:06.653Z,6.65
2023-05-09T16:24:33.955Z,8.77
2023-05-09T16:27:01.481Z,5.13
2023-05-09T16:29:28.817Z,9.93
2023-05-09T16:31:56.457Z,5.00
2023-05-09T16:34:23.648Z,8.10
2023-05-09T16:36:52.295Z,1.70
2023-05-09T16:39:19.552Z,5.05
2023-05-09T16:41:47.082Z,7.75
2023-05-09T16:44:15.425Z,6.15
2023-05-09T16:46:43.340Z,2.60
2023-05-09T16:49:11.123Z,6.60
2023-05-09T16:51:38.782Z,4.03
2023-05-09T16:54:06.089Z,6.05
2023-05-09T16:56:34.361Z,1.27
2023-05-09T16:59:01.702Z,2.60
2023-05-09T17:01:29.496Z,11.88
2023-05-09T17:03:57.197Z,7.13
2023-05-09T17:06:25.169Z,2.85
2023-05-09T17:08:52.747Z,5.25
2023-05-09T17:11:21.230Z,6.03
2023-05-09T17:13:48.446Z,5.35
2023-05-09T17:16:16.286Z,5.70
2023-05-09T17:18:47.381Z,6.47
2023-05-09T17:21:15.911Z,6.95
2023-05-09T17:23:43.624Z,3.42
2023-05-09T17:26:11.710Z,6.95
2023-05-09T17:28:39.527Z,5.50
2023-05-09T17:31:08.488Z,3.35
2023-05-09T17:33:35.826Z,9.65
2023-05-09T17:36:03.901Z,8.27
2023-05-09T17:38:31.248Z,7.93
2023-05-09T17:40:58.784Z,8.40
2023-05-09T17:43:27.855Z,7.20
2023-05-09T17:45:55.440Z,10.65
2023-05-09T17:48:22.914Z,18.33
2023-05-09T17:50:50.937Z,35.13
2023-05-09T17:53:18.457Z,8.13
2023-05-09T17:55:46.037Z,13.70
2023-05-09T17:58:15.252Z,7.15
2023-05-09T18:00:42.876Z,16.08
2023-05-09T18:03:10.444Z,8.40
2023-05-09T18:05:38.635Z,11.55
2023-05-09T18:08:05.833Z,7.00
2023-05-09T18:10:33.588Z,8.90
2023-05-09T18:13:00.910Z,5.63
2023-05-09T18:15:28.411Z,6.57
2023-05-09T18:17:57.755Z,5.78
2023-05-09T18:20:25.806Z,8.02
2023-05-09T18:22:54.299Z,6.25
2023-05-09T18:25:21.912Z,13.45
2023-05-09T18:27:49.255Z,12.52
2023-05-09T18:30:18.713Z,6.65
2023-05-09T18:32:46.036Z,5.53
2023-05-09T18:35:13.533Z,7.32
2023-05-09T18:37:40.753Z,18.40
2023-05-09T18:40:14.694Z,10.20
2023-05-09T18:42:42.434Z,7.85
2023-05-09T18:45:10.501Z,8.98
2023-05-09T18:47:38.298Z,9.02
2023-05-09T18:50:07.259Z,9.07
2023-05-09T18:52:34.585Z,12.05
2023-05-09T18:55:02.111Z,10.50
2023-05-09T18:57:29.380Z,4.95
2023-05-09T18:59:57.003Z,8.70
2023-05-09T19:02:24.239Z,6.95
2023-05-09T19:04:52.456Z,7.97
2023-05-09T19:07:19.689Z,7.68
2023-05-09T19:09:47.724Z,10.27
2023-05-09T19:12:16.420Z,9.38
2023-05-09T19:14:44.061Z,8.73
2023-05-09T19:17:11.355Z,9.07
2023-05-09T19:19:39.441Z,13.00
2023-05-09T19:22:07.136Z,17.20
2023-05-09T19:24:35.274Z,14.02
2023-05-09T19:27:04.242Z,15.20
2023-05-09T19:29:31.837Z,12.77
2023-05-09T19:31:59.244Z,14.98
2023-05-09T19:34:27.429Z,7.35
2023-05-09T19:36:54.812Z,7.53
2023-05-09T19:39:22.371Z,17.40
2023-05-09T19:41:49.976Z,12.57
2023-05-09T19:44:17.534Z,10.95
2023-05-09T19:46:44.825Z,9.25
2023-05-09T19:49:13.130Z,11.77
2023-05-09T19:51:40.510Z,10.40
2023-05-09T19:54:08.521Z,5.40
2023-05-09T19:56:35.775Z,6.80
2023-05-09T19:59:03.502Z,6.95
2023-05-09T20:01:31.299Z,9.05
2023-05-09T20:03:59.324Z,5.95
2023-05-09T20:06:26.752Z,14.95
2023-05-09T20:08:54.279Z,11.30
2023-05-09T20:11:22.202Z,7.28
2023-05-09T20:13:49.908Z,6.30
2023-05-09T20:16:17.338Z,8.85
2023-05-09T20:18:44.996Z,10.95
2023-05-09T20:21:12.220Z,9.88
2023-05-09T20:23:40.036Z,8.05
2023-05-09T20:26:07.629Z,6.65
2023-05-09T20:28:35.187Z,8.10
2023-05-09T20:31:02.494Z,10.27
2023-05-09T20:33:30.370Z,8.10
2023-05-09T20:35:57.691Z,7.75
2023-05-09T20:38:25.379Z,11.02
2023-05-09T20:40:52.545Z,9.63
2023-05-09T20:43:20.498Z,6.97
2023-05-09T20:45:48.070Z,6.70
2023-05-09T20:48:15.705Z,7.60
2023-05-09T20:50:43.014Z,7.68
2023-05-09T20:53:10.678Z,5.20
2023-05-09T20:55:38.226Z,5.25
2023-05-09T20:58:05.712Z,6.05
2023-05-09T21:00:33.766Z,5.22
2023-05-09T21:03:01.504Z,7.20
2023-05-09T21:05:28.735Z,7.88
2023-05-09T21:07:59.707Z,6.72
2023-05-09T21:10:27.032Z,6.60
2023-05-09T21:12:54.609Z,11.27
2023-05-09T21:15:21.901Z,7.47
2023-05-09T21:17:49.597Z,6.65
2023-05-09T21:20:17.248Z,8.05
2023-05-09T21:22:44.956Z,7.68
2023-05-09T21:25:12.613Z,15.95
2023-05-09T21:27:40.252Z,6.43
2023-05-09T21:30:08.484Z,9.68
2023-05-09T21:32:36.055Z,6.18
2023-05-09T21:35:04.114Z,9.45
2023-05-09T21:37:31.695Z,8.73
2023-05-09T21:39:58.902Z,7.18
2023-05-09T21:42:26.688Z,5.97
2023-05-09T21:44:53.956Z,11.68
2023-05-09T21:47:21.768Z,12.85
2023-05-09T21:49:49.444Z,7.38
2023-05-09T21:52:18.461Z,10.60
2023-05-09T21:54:45.828Z,11.90
2023-05-09T21:57:13.478Z,6.05
2023-05-09T21:59:40.914Z,9.02
2023-05-09T22:02:08.437Z,17.58
2023-05-09T22:04:35.869Z,7.25
2023-05-09T22:07:03.450Z,7.45
2023-05-09T22:09:31.107Z,9.95
2023-05-09T22:11:58.777Z,6.10
2023-05-09T22:14:26.276Z,11.25
2023-05-09T22:16:53.900Z,10.65
2023-05-09T22:19:21.122Z,14.40
2023-05-09T22:21:48.998Z,9.60
2023-05-09T22:24:16.420Z,6.45
2023-05-09T22:26:44.135Z,7.80
2023-05-09T22:29:11.581Z,7.35
2023-05-09T22:31:39.045Z,4.32
2023-05-09T22:34:06.449Z,5.90
2023-05-09T22:36:33.973Z,11.18
2023-05-09T22:39:01.501Z,8.45
2023-05-09T22:41:28.965Z,9.18
2023-05-09T22:43:56.625Z,9.02
2023-05-09T22:46:24.337Z,13.48
2023-05-09T22:48:51.648Z,8.55
2023-05-09T22:51:19.486Z,8.20
2023-05-09T22:53:46.765Z,9.60
2023-05-09T22:56:14.332Z,7.75
2023-05-09T22:58:41.600Z,5.95
2023-05-09T23:01:09.150Z,6.57
2023-05-09T23:03:36.531Z,8.00
2023-05-09T23:06:04.422Z,7.57
2023-05-09T23:08:31.641Z,7.65
2023-05-09T23:10:59.211Z,6.50
2023-05-09T23:13:26.637Z,10.98
2023-05-09T23:15:54.199Z,5.35
2023-05-09T23:18:23.769Z,11.35
2023-05-09T23:20:51.685Z,5.57
2023-05-09T23:23:18.980Z,13.95
2023-05-09T23:25:46.442Z,9.23
2023-05-09T23:28:13.845Z,9.00
2023-05-09T23:30:41.514Z,5.07
2023-05-09T23:33:08.859Z,8.98
2023-05-09T23:35:36.570Z,6.80
2023-05-09T23:38:04.673Z,5.40
2023-05-09T23:40:32.221Z,6.03
2023-05-09T23:42:59.418Z,10.35
2023-05-09T23:45:26.949Z,11.60
2023-05-09T23:47:54.298Z,9.77
2023-05-09T23:50:22.250Z,10.75
2023-05-09T23:52:51.263Z,8.70
2023-05-09T23:55:18.801Z,8.13
2023-05-09T23:57:46.176Z,10.00
